createdAt,value
2022-09-20T00:00:07.166Z,81.04
2022-09-20T00:02:41.670Z,81.16
2022-09-20T00:05:24.116Z,81.02
2022-09-20T00:07:56.382Z,80.92
2022-09-20T00:10:27.854Z,81.50
2022-09-20T00:12:58.159Z,80.43
2022-09-20T00:15:30.192Z,80.97
2022-09-20T00:18:01.285Z,81.21
2022-09-20T00:20:30.694Z,81.22
2022-09-20T00:23:00.351Z,80.97
2022-09-20T00:25:28.653Z,81.44
2022-09-20T00:27:56.646Z,81.00
2022-09-20T00:30:24.541Z,80.77
2022-09-20T00:32:52.821Z,81.48
2022-09-20T00:35:19.973Z,81.17
2022-09-20T00:37:50.654Z,81.05
2022-09-20T00:40:22.336Z,80.98
2022-09-20T00:42:51.976Z,81.35
2022-09-20T00:45:23.621Z,81.34
2022-09-20T00:47:57.251Z,81.16
2022-09-20T00:50:38.898Z,81.38
2022-09-20T00:53:12.142Z,81.47
2022-09-20T00:55:47.265Z,81.42
2022-09-20T00:58:16.358Z,81.25
2022-09-20T01:00:46.177Z,81.65
2022-09-20T01:03:20.454Z,81.65
2022-09-20T01:05:48.517Z,81.64
2022-09-20T01:08:16.779Z,81.10
2022-09-20T01:10:48.837Z,81.37
2022-09-20T01:13:19.183Z,81.38
2022-09-20T01:15:49.383Z,81.48
2022-09-20T01:18:18.481Z,81.62
2022-09-20T01:20:48.224Z,81.41
2022-09-20T01:23:28.573Z,81.79
2022-09-20T01:26:25.818Z,81.76
2022-09-20T01:29:02.835Z,81.71
2022-09-20T01:31:35.484Z,81.78
2022-09-20T01:34:09.944Z,81.60
2022-09-20T01:36:46.104Z,81.58
2022-09-20T01:39:24.002Z,81.46
2022-09-20T01:41:58.537Z,81.46
2022-09-20T01:44:36.559Z,81.70
2022-09-20T01:47:21.952Z,81.77
2022-09-20T01:49:59.403Z,81.87
2022-09-20T01:53:18.474Z,81.44
2022-09-20T01:56:07.017Z,81.85
2022-09-20T01:59:22.681Z,82.07
2022-09-20T02:02:11.029Z,81.70
2022-09-20T02:05:10.191Z,82.06
2022-09-20T02:08:09.713Z,81.92
2022-09-20T02:10:58.114Z,81.95
2022-09-20T02:13:32.743Z,82.00
2022-09-20T02:16:20.990Z,81.86
2022-09-20T02:19:11.338Z,81.94
2022-09-20T02:21:49.138Z,81.53
2022-09-20T02:24:27.759Z,81.84
2022-09-20T02:27:14.108Z,82.02
2022-09-20T02:29:49.824Z,81.96
2022-09-20T02:32:30.252Z,82.07
2022-09-20T02:35:25.955Z,82.07
2022-09-20T02:38:06.757Z,82.12
2022-09-20T02:40:48.452Z,82.29
2022-09-20T02:43:26.139Z,82.30
2022-09-20T02:46:03.031Z,82.11
2022-09-20T02:48:39.308Z,81.87
2022-09-20T02:51:19.555Z,82.16
2022-09-20T02:53:56.638Z,82.15
2022-09-20T02:56:33.027Z,82.33
2022-09-20T02:59:08.025Z,82.63
2022-09-20T03:01:50.621Z,82.04
2022-09-20T03:04:31.670Z,82.87
2022-09-20T03:07:11.005Z,82.37
2022-09-20T03:09:46.159Z,82.49
2022-09-20T03:12:30.243Z,82.43
2022-09-20T03:15:11.688Z,82.26
2022-09-20T03:17:50.965Z,82.30
2022-09-20T03:20:33.489Z,82.59
2022-09-20T03:23:15.199Z,82.41
2022-09-20T03:25:53.188Z,82.19
2022-09-20T03:28:43.527Z,82.66
2022-09-20T03:31:27.249Z,82.13
2022-09-20T03:34:10.439Z,82.79
2022-09-20T03:37:07.687Z,82.55
2022-09-20T03:40:07.438Z,82.36
2022-09-20T03:42:44.157Z,82.47
2022-09-20T03:45:37.659Z,82.74
2022-09-20T03:48:38.879Z,82.67
2022-09-20T03:51:20.106Z,82.60
2022-09-20T03:54:23.135Z,82.35
2022-09-20T03:57:26.376Z,82.23
2022-09-20T04:00:09.942Z,82.45
2022-09-20T04:02:54.502Z,82.74
2022-09-20T04:05:31.460Z,82.22
2022-09-20T04:08:13.068Z,82.67
2022-09-20T04:10:55.111Z,83.04
2022-09-20T04:13:36.793Z,82.90
2022-09-20T04:16:28.199Z,82.81
2022-09-20T04:19:00.865Z,82.41
2022-09-20T04:21:37.154Z,82.79
2022-09-20T04:24:13.037Z,82.80
2022-09-20T04:26:46.619Z,82.34
2022-09-20T04:29:32.132Z,83.10
2022-09-20T04:32:08.615Z,82.79
2022-09-20T04:35:07.003Z,82.52
2022-09-20T04:37:38.954Z,82.80
2022-09-20T04:40:27.759Z,83.25
2022-09-20T04:43:37.202Z,82.54
2022-09-20T04:46:30.460Z,82.82
2022-09-20T04:49:32.460Z,82.68
2022-09-20T04:52:34.928Z,83.20
2022-09-20T04:55:36.953Z,82.76
2022-09-20T04:58:38.794Z,82.72
2022-09-20T05:01:49.944Z,82.96
2022-09-20T05:04:52.090Z,83.31
2022-09-20T05:08:02.614Z,82.81
2022-09-20T05:11:18.256Z,82.77
2022-09-20T05:14:58.167Z,83.24
2022-09-20T05:18:08.455Z,82.75
2022-09-20T05:21:44.244Z,82.79
2022-09-20T05:24:25.594Z,83.18
2022-09-20T05:27:18.266Z,82.80
2022-09-20T05:30:05.485Z,82.62
2022-09-20T05:32:50.062Z,83.05
2022-09-20T05:35:38.218Z,83.04
2022-09-20T05:38:22.893Z,82.94
2022-09-20T05:41:11.279Z,83.19
2022-09-20T05:44:09.092Z,83.09
2022-09-20T05:47:11.531Z,83.26
2022-09-20T05:49:55.082Z,83.07
2022-09-20T05:52:46.186Z,83.78
2022-09-20T05:56:06.262Z,83.34
2022-09-20T05:59:25.774Z,82.95
2022-09-20T06:02:42.153Z,83.43
2022-09-20T06:05:29.056Z,83.52
2022-09-20T06:08:17.433Z,82.94
2022-09-20T06:14:27.735Z,83.45
2022-09-20T06:17:21.148Z,83.31
2022-09-20T06:23:44.943Z,83.25
2022-09-20T06:26:19.114Z,83.33
2022-09-20T06:29:01.316Z,83.35
2022-09-20T06:34:30.882Z,83.43
2022-09-20T06:37:29.783Z,83.62
2022-09-20T06:40:25.985Z,83.47
2022-09-20T06:42:57.766Z,83.27
2022-09-20T06:48:54.048Z,83.42
2022-09-20T06:51:42.339Z,83.38
2022-09-20T06:54:18.975Z,83.23
2022-09-20T06:56:51.430Z,83.42
2022-09-20T06:59:24.025Z,83.18
2022-09-20T07:02:08.191Z,83.45
2022-09-20T07:05:01.150Z,83.61
2022-09-20T07:07:29.418Z,83.25
2022-09-20T07:32:05.080Z,83.42
2022-09-20T07:34:36.770Z,83.23
2022-09-20T07:37:06.015Z,83.42
2022-09-20T07:39:40.246Z,83.43
2022-09-20T07:42:10.190Z,83.33
2022-09-20T07:44:42.699Z,83.22
2022-09-20T07:47:21.050Z,82.80
2022-09-20T07:49:51.995Z,83.41
2022-09-20T07:52:22.744Z,83.21
2022-09-20T07:54:51.165Z,83.17
2022-09-20T07:57:28.728Z,82.96
2022-09-20T08:00:26.749Z,83.02
2022-09-20T08:03:10.446Z,83.02
2022-09-20T08:09:01.203Z,83.03
2022-09-20T08:11:43.001Z,83.17
2022-09-20T08:14:37.794Z,83.02
2022-09-20T08:17:17.726Z,82.88
2022-09-20T08:20:09.940Z,83.09
2022-09-20T08:23:00.916Z,82.96
2022-09-20T08:25:38.598Z,83.08
2022-09-20T08:28:07.999Z,82.83
2022-09-20T08:30:38.340Z,83.11
2022-09-20T08:33:07.079Z,82.65
2022-09-20T08:35:38.479Z,83.07
2022-09-20T08:41:41.619Z,82.85
2022-09-20T08:44:25.954Z,82.77
2022-09-20T08:50:35.983Z,82.72
2022-09-20T08:53:06.014Z,82.80
2022-09-20T08:55:40.571Z,82.55
2022-09-20T08:58:16.489Z,82.52
2022-09-20T09:01:06.610Z,82.56
2022-09-20T09:03:35.645Z,82.64
2022-09-20T09:07:40.414Z,82.51
2022-09-20T09:09:37.702Z,82.35
2022-09-20T09:12:41.207Z,82.21
2022-09-20T09:15:26.880Z,82.10
2022-09-20T09:17:56.330Z,82.21
2022-09-20T09:20:28.380Z,82.01
2022-09-20T09:23:02.248Z,82.10
2022-09-20T09:25:34.570Z,82.00
2022-09-20T09:28:06.058Z,81.99
2022-09-20T09:30:40.240Z,81.95
2022-09-20T09:33:28.621Z,81.74
2022-09-20T09:36:06.935Z,81.45
2022-09-20T09:38:37.934Z,81.46
2022-09-20T09:41:32.453Z,81.52
2022-09-20T09:44:06.884Z,81.27
2022-09-20T09:46:36.358Z,81.11
2022-09-20T09:49:18.282Z,81.16
2022-09-20T09:52:03.052Z,81.01
2022-09-20T09:54:33.885Z,81.06
2022-09-20T09:57:17.456Z,81.03
2022-09-20T10:00:18.132Z,80.64
2022-09-20T10:03:22.804Z,80.92
2022-09-20T10:06:10.083Z,80.71
2022-09-20T10:09:27.528Z,80.91
2022-09-20T10:12:24.818Z,80.77
2022-09-20T10:15:12.606Z,80.57
2022-09-20T10:18:02.687Z,80.53
2022-09-20T10:21:05.695Z,80.41
2022-09-20T10:24:14.474Z,80.17
2022-09-20T10:27:08.211Z,79.96
2022-09-20T10:29:56.062Z,79.92
2022-09-20T10:32:55.118Z,79.50
2022-09-20T10:35:37.565Z,79.39
2022-09-20T10:38:31.706Z,79.13
2022-09-20T10:42:13.897Z,79.29
2022-09-20T10:47:59.191Z,79.04
2022-09-20T10:50:38.346Z,78.76
2022-09-20T10:53:19.908Z,78.60
2022-09-20T10:55:57.564Z,78.79
2022-09-20T10:58:46.999Z,78.73
2022-09-20T11:01:27.349Z,78.55
2022-09-20T11:04:18.480Z,78.67
2022-09-20T11:06:57.347Z,78.53
2022-09-20T11:09:31.251Z,78.57
2022-09-20T11:12:10.711Z,78.20
2022-09-20T11:14:44.454Z,78.02
2022-09-20T11:17:20.682Z,77.76
2022-09-20T11:19:59.732Z,77.75
2022-09-20T11:22:40.059Z,77.57
2022-09-20T11:25:20.876Z,77.47
2022-09-20T11:27:54.802Z,77.41
2022-09-20T11:30:24.609Z,77.35
2022-09-20T11:33:01.897Z,77.47
2022-09-20T11:35:34.571Z,77.11
2022-09-20T11:38:11.989Z,77.10
2022-09-20T11:40:47.104Z,76.77
2022-09-20T11:43:16.876Z,76.72
2022-09-20T11:45:46.789Z,76.94
2022-09-20T11:48:21.418Z,76.90
2022-09-20T11:51:18.476Z,76.41
2022-09-20T11:54:05.096Z,76.59
2022-09-20T11:56:35.354Z,76.54
2022-09-20T11:59:07.629Z,76.48
2022-09-20T12:01:41.694Z,76.27
2022-09-20T12:04:31.879Z,76.41
2022-09-20T12:07:09.689Z,75.87
2022-09-20T12:09:43.198Z,76.37
2022-09-20T12:12:28.351Z,75.90
2022-09-20T12:14:58.798Z,76.09
2022-09-20T12:18:09.598Z,76.26
2022-09-20T12:21:02.125Z,76.14
2022-09-20T12:24:11.968Z,76.16
2022-09-20T12:26:43.621Z,76.03
2022-09-20T12:29:54.687Z,75.76
2022-09-20T12:32:40.821Z,76.04
2022-09-20T12:35:55.078Z,75.72
2022-09-20T12:38:48.495Z,75.42
2022-09-20T12:41:27.903Z,75.73
2022-09-20T12:44:27.830Z,75.35
2022-09-20T12:46:59.283Z,75.20
2022-09-20T12:49:56.023Z,75.21
2022-09-20T12:52:49.593Z,75.34
2022-09-20T12:55:55.590Z,75.38
2022-09-20T12:58:32.360Z,75.21
2022-09-20T13:01:33.159Z,74.91
2022-09-20T13:04:38.367Z,75.14
2022-09-20T13:07:35.916Z,74.77
2022-09-20T13:10:27.559Z,75.12
2022-09-20T13:13:02.960Z,74.94
2022-09-20T13:15:33.345Z,74.86
2022-09-20T13:18:14.834Z,74.89
2022-09-20T13:20:58.730Z,74.73
2022-09-20T13:23:45.601Z,74.72
2022-09-20T13:26:33.041Z,74.51
2022-09-20T13:29:05.347Z,74.60
2022-09-20T13:31:36.015Z,74.71
2022-09-20T13:34:15.268Z,74.86
2022-09-20T13:36:44.857Z,74.61
2022-09-20T13:39:25.985Z,74.59
2022-09-20T13:42:15.255Z,74.47
2022-09-20T13:45:03.471Z,74.48
2022-09-20T13:48:06.559Z,74.11
2022-09-20T13:50:53.668Z,74.01
2022-09-20T13:53:44.794Z,74.29
2022-09-20T13:56:27.453Z,74.35
2022-09-20T13:59:11.053Z,74.06
2022-09-20T14:01:54.599Z,74.01
2022-09-20T14:04:54.924Z,73.89
2022-09-20T14:07:48.694Z,73.78
2022-09-20T14:13:48.968Z,73.72
2022-09-20T14:16:18.635Z,73.57
2022-09-20T15:19:11.832Z,72.88
2022-09-20T15:22:07.693Z,72.90
2022-09-20T15:24:40.812Z,72.62
2022-09-20T15:27:17.205Z,72.83
2022-09-20T15:29:48.723Z,72.68
2022-09-20T15:32:18.582Z,72.53
2022-09-20T16:07:37.309Z,71.82
2022-09-20T16:10:06.186Z,72.30
2022-09-20T16:12:34.530Z,71.81
2022-09-20T16:15:02.714Z,72.01
2022-09-20T16:17:50.990Z,71.78
2022-09-20T16:20:19.267Z,71.82
2022-09-20T16:22:48.905Z,72.07
2022-09-20T16:25:17.195Z,71.95
2022-09-20T16:27:50.487Z,71.48
2022-09-20T16:30:20.970Z,71.42
2022-09-20T16:32:51.769Z,71.69
2022-09-20T16:35:20.064Z,71.59
2022-09-20T16:37:49.750Z,71.67
2022-09-20T16:40:17.965Z,71.45
2022-09-20T16:42:52.063Z,71.46
2022-09-20T16:45:21.527Z,71.42
2022-09-20T16:47:50.337Z,71.30
2022-09-20T16:50:18.450Z,71.07
2022-09-20T16:52:47.241Z,71.36
2022-09-20T16:55:18.137Z,71.30
2022-09-20T16:57:46.202Z,71.27
2022-09-20T17:00:21.244Z,71.21
2022-09-20T17:02:51.145Z,71.29
2022-09-20T17:05:23.766Z,71.51
2022-09-20T17:07:52.063Z,71.41
2022-09-20T17:10:24.628Z,70.83
2022-09-20T17:12:57.524Z,71.16
2022-09-20T17:15:26.158Z,71.08
2022-09-20T17:17:57.711Z,71.30
2022-09-20T17:20:27.232Z,71.10
2022-09-20T17:22:55.942Z,70.99
2022-09-20T17:25:30.355Z,71.12
2022-09-20T17:27:58.292Z,71.06
2022-09-20T17:30:26.671Z,71.09
2022-09-20T17:32:55.181Z,71.00
2022-09-20T17:35:23.579Z,70.88
2022-09-20T17:37:51.703Z,70.95
2022-09-20T17:40:20.050Z,70.55
2022-09-20T17:42:49.886Z,70.60
2022-09-20T17:45:18.169Z,70.79
2022-09-20T17:47:46.378Z,70.75
2022-09-20T17:51:03.069Z,70.71
2022-09-20T17:53:38.571Z,71.06
2022-09-20T17:56:07.168Z,70.64
2022-09-20T17:58:38.065Z,70.55
2022-09-20T18:01:12.454Z,70.94
2022-09-20T18:03:42.774Z,70.48
2022-09-20T18:06:18.871Z,70.79
2022-09-20T18:08:48.705Z,70.83
2022-09-20T18:11:20.389Z,70.62
2022-09-20T18:13:50.537Z,70.43
2022-09-20T18:16:19.126Z,70.56
2022-09-20T18:18:49.658Z,70.33
2022-09-20T18:21:19.480Z,70.72
2022-09-20T18:23:48.971Z,70.54
2022-09-20T18:26:28.244Z,70.46
2022-09-20T18:29:01.684Z,70.72
2022-09-20T18:31:39.949Z,71.07
2022-09-20T18:34:18.630Z,70.55
2022-09-20T18:36:52.978Z,70.57
2022-09-20T18:39:22.150Z,70.69
2022-09-20T18:41:50.874Z,70.55
2022-09-20T18:44:20.730Z,70.39
2022-09-20T18:46:49.466Z,70.47
2022-09-20T18:49:17.907Z,70.63
2022-09-20T18:51:47.244Z,70.51
2022-09-20T18:54:16.456Z,70.60
2022-09-20T18:56:46.548Z,70.95
2022-09-20T18:59:18.466Z,70.70
2022-09-20T19:02:24.001Z,71.00
2022-09-20T19:05:12.072Z,70.44
2022-09-20T19:07:54.020Z,71.17
2022-09-20T19:10:33.829Z,70.95
2022-09-20T19:13:13.143Z,70.63
2022-09-20T19:15:55.975Z,70.94
2022-09-20T19:18:37.892Z,70.87
2022-09-20T19:21:18.231Z,70.78
2022-09-20T19:24:03.059Z,70.84
2022-09-20T19:26:55.662Z,71.16
2022-09-20T19:29:26.949Z,71.26
2022-09-20T19:32:01.058Z,70.84
2022-09-20T19:39:32.317Z,71.30
2022-09-20T19:43:15.452Z,70.86
2022-09-20T19:52:19.798Z,70.97
2022-09-20T19:54:50.632Z,71.28
2022-09-20T19:57:22.156Z,71.65
2022-09-20T19:59:53.542Z,71.06
2022-09-20T20:02:24.079Z,71.78
2022-09-20T20:04:52.950Z,71.04
2022-09-20T20:07:29.853Z,71.56
2022-09-20T20:10:07.456Z,71.67
2022-09-20T20:12:42.638Z,71.38
2022-09-20T20:15:21.718Z,71.61
2022-09-20T20:17:59.023Z,71.19
2022-09-20T20:20:37.221Z,71.56
2022-09-20T20:23:41.870Z,71.35
2022-09-20T20:26:18.440Z,71.45
2022-09-20T20:28:46.442Z,71.38
2022-09-20T20:31:15.157Z,71.78
2022-09-20T20:33:43.756Z,71.65
2022-09-20T20:38:55.316Z,71.55
2022-09-20T20:41:24.743Z,71.56
2022-09-20T20:43:57.995Z,71.88
2022-09-20T20:46:26.313Z,71.79
2022-09-20T20:48:54.344Z,71.71
2022-09-20T20:51:23.856Z,71.78
2022-09-20T20:53:53.958Z,71.85
2022-09-20T20:56:26.132Z,72.01
2022-09-20T20:58:54.762Z,71.91
2022-09-20T21:01:24.759Z,71.98
2022-09-20T21:03:54.705Z,71.94
2022-09-20T21:06:25.339Z,72.04
2022-09-20T21:08:53.708Z,72.14
2022-09-20T21:11:24.367Z,72.05
2022-09-20T21:13:55.086Z,72.02
2022-09-20T21:16:24.811Z,72.24
2022-09-20T21:18:53.154Z,72.06
2022-09-20T21:21:23.308Z,71.91
2022-09-20T21:23:52.971Z,72.09
2022-09-20T21:26:21.924Z,72.70
2022-09-20T21:28:54.654Z,72.13
2022-09-20T21:31:24.046Z,72.18
2022-09-20T21:33:52.307Z,72.48
2022-09-20T21:36:22.228Z,72.64
2022-09-20T21:38:52.950Z,72.60
2022-09-20T21:41:22.831Z,72.35
2022-09-20T21:43:55.596Z,72.30
2022-09-20T21:46:28.475Z,72.78
2022-09-20T21:48:57.964Z,72.67
2022-09-20T21:51:29.907Z,72.65
2022-09-20T21:53:59.682Z,72.64
2022-09-20T21:56:29.615Z,72.52
2022-09-20T21:59:01.057Z,72.61
2022-09-20T22:01:29.683Z,72.63
2022-09-20T22:04:00.969Z,72.49
2022-09-20T22:06:30.781Z,72.67
2022-09-20T22:09:02.846Z,72.73
2022-09-20T22:11:33.345Z,72.73
2022-09-20T22:14:03.748Z,72.85
2022-09-20T22:16:33.612Z,73.03
2022-09-20T22:19:02.415Z,72.61
2022-09-20T22:21:31.990Z,73.05
2022-09-20T22:24:02.722Z,72.71
2022-09-20T22:26:33.889Z,72.98
2022-09-20T22:29:07.035Z,72.54
2022-09-20T22:31:39.856Z,73.00
2022-09-20T22:34:08.836Z,72.77
2022-09-20T22:36:42.480Z,73.28
2022-09-20T22:39:16.319Z,73.28
2022-09-20T22:41:50.089Z,73.13
2022-09-20T22:44:20.135Z,73.15
2022-09-20T22:47:00.550Z,73.25
2022-09-20T22:49:35.658Z,73.32
2022-09-20T22:52:27.349Z,73.36
2022-09-20T22:55:06.186Z,73.17
2022-09-20T22:57:45.269Z,73.35
2022-09-20T23:00:18.936Z,73.14
2022-09-20T23:02:47.355Z,73.19
2022-09-20T23:05:18.238Z,73.63
2022-09-20T23:07:50.120Z,73.54
2022-09-20T23:10:22.898Z,73.54
2022-09-20T23:13:06.593Z,73.47
2022-09-20T23:15:42.136Z,73.42
2022-09-20T23:18:17.886Z,73.67
2022-09-20T23:20:47.086Z,73.66
2022-09-20T23:23:23.777Z,73.64
2022-09-20T23:25:57.344Z,73.80
2022-09-20T23:28:32.806Z,73.72
2022-09-20T23:31:13.197Z,73.88
2022-09-20T23:33:52.690Z,73.58
2022-09-20T23:36:35.837Z,73.96
2022-09-20T23:39:11.704Z,73.95
2022-09-20T23:41:41.507Z,74.09
2022-09-20T23:44:18.361Z,74.19
2022-09-20T23:46:51.656Z,73.99
2022-09-20T23:49:26.945Z,73.97
2022-09-20T23:52:06.873Z,74.15
2022-09-20T23:54:38.602Z,73.95
2022-09-20T23:57:10.166Z,74.05
2022-09-20T23:59:39.785Z,73.94
